Date,TemperatureHighF,TemperatureAvgF,TemperatureLowF,DewpointHighF,DewpointAvgF,DewpointLowF,HumidityHigh,HumidityAvg,HumidityLow,PressureMaxIn,PressureMinIn,WindSpeedMaxMPH,WindSpeedAvgMPH,GustSpeedMaxMPH,PrecipitationSumIn
2012-1-1,49.7,42.1,32.2,45.0,39.2,31.3,99,90,69,30.08,29.60,4,1,13,0.35
2012-1-2,45.6,35.6,28.5,44.3,26.4,19.9,95,69,51,29.73,29.57,6,2,11,0.00
2012-1-3,28.5,18.3,7.3,22.6,8.3,-5.1,84,65,53,30.08,29.72,7,4,16,0.00
2012-1-4,21.3,14.2,6.6,10.5,2.9,-5.1,74,61,47,30.19,29.93,8,3,15,0.00
2012-1-5,34.9,27.6,20.1,22.9,17.3,10.2,71,65,58,29.93,29.78,6,1,9,0.00
2012-1-6,47.7,37.0,27.6,30.6,26.4,19.4,83,66,48,29.92,29.70,4,1,9,0.00
2012-1-7,57.1,41.6,27.2,35.7,31.2,25.3,94,69,43,29.92,29.66,5,1,12,0.00
2012-1-8,39.5,34.2,25.1,29.4,23.6,16.3,83,65,52,30.28,29.92,6,2,10,0.00
2012-1-9,39.9,29.3,19.3,23.8,15.9,9.5,86,60,31,30.29,29.96,3,1,9,0.00
2012-1-10,41.1,34.1,25.4,29.3,25.2,20.7,83,70,59,29.97,29.81,4,1,8,0.00
2012-1-11,43.4,34.0,25.4,31.6,25.8,22.1,89,73,52,30.08,29.93,3,1,8,0.00
2012-1-12,35.4,33.7,32.4,34.0,32.5,30.5,97,95,85,29.93,29.47,9,2,16,0.91
2012-1-13,40.0,30.8,24.7,38.1,25.6,14.0,99,82,60,29.66,29.22,8,3,20,0.22
2012-1-14,30.2,24.1,13.1,20.2,14.7,6.3,75,67,54,30.05,29.66,6,3,15,0.00
2012-1-15,14.7,9.0,1.0,6.2,-3.1,-8.2,75,59,37,30.57,30.05,8,4,14,0.00
2012-1-16,29.4,17.9,5.2,26.5,6.9,-2.4,95,64,32,30.60,30.14,6,2,10,0.00
2012-1-17,45.4,35.2,28.1,43.8,33.8,26.3,99,95,91,30.15,29.47,4,1,7,0.24
2012-1-18,45.9,30.4,15.3,43.7,18.5,5.2,94,62,45,30.12,29.47,10,5,20,0.00
2012-1-19,28.1,19.3,7.8,26.7,11.6,4.5,95,74,41,30.26,29.93,3,1,7,0.00
2012-1-20,28.1,22.1,15.2,26.4,12.2,3.2,94,67,50,30.28,29.92,7,2,12,0.00
2012-1-21,20.8,17.1,12.5,17.3,12.0,4.1,91,81,57,30.32,30.05,3,0,6,0.00
2012-1-22,27.9,18.8,5.1,21.0,13.5,2.8,91,80,67,30.56,30.32,4,1,7,0.00
2012-1-23,46.6,31.2,25.0,46.6,29.6,20.8,100,94,83,30.48,29.85,2,0,5,0.60
2012-1-24,50.2,43.3,34.1,47.7,38.8,29.5,100,85,67,30.08,29.85,4,1,8,0.05
2012-1-25,37.0,33.4,30.4,29.5,26.3,25.3,83,75,67,30.26,30.07,6,3,13,0.00
2012-1-26,37.9,32.3,28.5,31.9,28.4,25.5,97,86,67,30.20,29.87,3,1,5,0.31
2012-1-27,48.4,36.3,32.4,47.8,34.6,30.8,100,94,73,29.87,29.32,11,2,13,0.90
2012-1-28,43.4,36.8,32.4,31.1,27.4,19.6,87,69,50,30.00,29.74,7,2,14,0.00
2012-1-29,39.7,33.9,29.1,19.9,16.6,13.3,59,49,40,30.11,29.92,5,3,11,0.00
2012-1-30,34.1,30.0,23.6,24.9,17.1,12.9,79,59,45,30.27,29.93,9,3,22,0.00
2012-1-31,53.8,41.6,27.3,32.1,25.9,16.4,69,55,39,30.25,29.97,4,1,8,0.00
2012-2-1,57.4,47.1,37.0,45.1,36.8,30.3,80,68,55,29.97,29.78,6,2,13,0.00
2012-2-2,40.1,35.4,28.4,31.8,28.0,21.8,82,74,66,30.20,29.96,6,2,13,0.00
2012-2-3,37.7,29.6,21.2,22.3,18.0,11.1,78,63,42,30.41,30.21,6,3,13,0.00
2012-2-4,41.3,33.6,25.3,27.6,23.3,19.5,82,66,48,30.29,30.10,5,1,9,0.00
2012-2-5,34.3,26.7,20.7,19.8,16.4,14.0,88,66,44,30.16,30.08,5,1,11,0.00
2012-2-6,49.2,35.0,22.0,26.5,22.0,15.9,82,61,37,30.11,29.90,4,1,8,0.00
2012-2-7,43.4,35.6,27.9,28.9,25.3,18.7,82,66,52,30.22,29.90,6,2,10,0.00
2012-2-8,36.1,28.9,21.2,18.8,11.8,5.3,78,51,28,30.30,30.06,3,1,7,0.00
2012-2-9,43.4,31.3,22.6,22.6,19.3,15.0,92,63,33,30.11,30.02,6,2,11,0.00
2012-2-10,43.4,32.3,19.5,25.0,21.1,16.6,91,66,42,30.11,29.88,6,1,10,0.00
2012-2-11,36.1,32.1,21.9,29.0,24.1,13.9,92,72,63,29.88,29.52,7,1,11,0.02
2012-2-12,24.0,17.9,11.4,15.5,7.0,-4.0,81,62,50,29.90,29.63,8,5,18,0.00
2012-2-13,41.8,29.4,17.7,19.3,15.4,7.9,83,58,34,29.98,29.87,5,2,17,0.00
2012-2-14,42.8,33.7,26.0,24.4,17.6,13.9,75,52,36,30.09,29.98,2,0,5,0.00
2012-2-15,45.4,36.1,29.6,37.3,31.5,24.7,97,84,69,30.25,30.06,4,1,8,0.04
2012-2-16,37.9,30.4,24.0,31.8,27.3,22.5,95,88,72,30.28,30.10,3,0,4,0.02
2012-2-18,38.7,35.9,31.3,31.3,29.0,26.2,88,76,61,29.97,29.88,3,1,9,0.00
2012-2-19,42.1,33.4,27.5,29.6,22.1,17.2,91,65,37,30.07,29.95,5,2,8,0.00
2012-2-20,38.2,28.7,22.2,20.7,16.5,12.3,81,62,35,30.33,29.98,7,2,12,0.00
2012-2-21,40.1,30.3,16.0,36.3,22.9,13.6,96,76,42,30.35,29.84,5,1,10,0.02
2012-2-22,52.5,42.8,33.6,37.7,32.9,27.4,96,71,40,29.84,29.48,5,1,11,0.00
2012-2-23,49.2,40.6,29.5,40.7,32.7,24.3,95,75,48,29.77,29.35,8,2,13,0.00
2012-2-24,35.8,32.1,29.1,34.7,30.6,24.8,98,94,82,29.75,29.28,5,1,9,0.69
2012-2-25,39.7,34.0,27.0,33.9,23.7,14.1,93,66,50,29.92,29.29,9,6,27,0.12
2012-2-26,37.9,28.7,22.3,16.0,11.3,5.3,73,49,30,30.44,29.92,11,4,17,0.00
2012-2-27,50.2,34.8,16.9,34.5,25.6,14.2,91,71,47,30.43,30.04,6,1,13,0.00
2012-2-28,42.9,35.9,29.3,29.9,21.6,17.6,69,56,40,30.38,30.08,8,3,18,0.00
2012-2-29,33.5,30.9,28.9,30.9,25.6,19.8,97,82,61,30.36,29.82,4,1,8,0.00
2012-3-1,33.5,32.6,31.7,32.2,31.5,30.7,97,96,95,29.83,29.67,3,1,7,0.10
2012-3-2,32.3,31.1,30.5,30.6,29.4,27.6,96,93,84,30.10,29.86,3,2,7,0.01
2012-3-3,52.2,37.2,31.5,42.4,34.3,30.5,98,91,44,29.86,29.37,4,1,7,0.13
2012-3-4,41.6,35.5,28.8,26.4,22.0,17.9,85,59,40,29.67,29.51,4,2,6,0.00
2012-3-5,36.5,27.5,18.6,23.4,12.5,5.8,81,55,30,30.35,29.67,6,3,9,0.00
2012-3-6,26.7,19.3,16.3,11.2,9.6,8.1,73,66,51,30.59,30.34,6,3,10,0.00
2012-3-7,48.6,47.6,46.3,37.5,35.5,34.3,71,63,59,30.30,30.27,1,0,4,0.00
2012-3-8,46.3,43.7,42.4,40.7,39.0,36.9,92,84,71,30.27,30.21,1,0,3,0.00
2012-7-17,92.0,87.4,78.8,72.1,70.0,66.9,75,57,44,29.76,29.64,4,1,9,0.00
2012-7-18,95.0,79.6,71.3,75.0,72.5,67.7,99,81,49,29.84,29.68,10,0,13,0.65
2012-7-19,82.1,71.4,62.7,73.4,62.9,57.8,99,76,49,29.95,29.83,6,0,6,0.03
2012-7-20,68.4,62.6,59.6,63.8,59.7,56.5,98,91,75,30.03,29.93,6,0,6,0.54
2012-7-21,80.3,67.2,56.9,63.7,57.1,51.2,100,74,38,30.08,30.00,6,0,6,0.00
2012-7-22,83.0,70.1,55.9,66.1,61.0,54.9,98,75,51,30.11,30.02,11,0,11,0.00
2012-7-23,84.0,71.5,64.7,74.4,67.8,59.9,99,89,72,30.06,29.71,7,0,8,0.80
2012-7-24,86.1,75.0,65.5,72.7,66.8,57.7,99,78,54,29.73,29.54,14,1,14,0.01
2012-7-25,80.3,69.1,57.1,62.0,56.6,52.5,87,66,42,29.84,29.69,9,1,12,0.00
2012-7-26,85.7,71.6,63.7,74.6,66.6,60.7,97,85,65,29.74,29.55,9,0,12,0.14
2012-7-27,83.9,75.3,68.2,74.0,69.9,67.1,99,84,66,29.85,29.59,7,0,7,0.01
2012-7-28,77.8,70.3,65.2,70.6,67.8,64.9,99,92,75,29.91,29.84,9,0,9,0.89
2012-7-29,74.7,68.0,62.9,67.9,65.3,62.3,99,92,75,30.02,29.87,8,0,9,0.06
2012-7-30,80.9,70.4,63.1,70.1,65.1,62.5,100,85,64,30.08,30.01,6,0,7,0.00
2012-7-31,73.4,67.1,61.6,65.7,63.5,61.0,99,89,75,30.05,29.87,2,0,4,0.00
2012-8-1,84.0,69.6,61.6,71.5,66.2,61.3,100,90,59,29.89,29.78,3,0,6,0.27
2012-8-2,86.5,75.7,65.9,72.7,67.7,63.4,100,79,47,29.86,29.78,2,0,5,0.01
2012-8-3,90.3,78.1,66.9,74.6,70.0,65.0,100,79,45,30.05,29.86,3,0,8,0.00
2012-8-4,90.8,78.6,67.6,76.6,72.0,67.3,100,82,56,30.16,30.05,3,1,7,0.00
2012-8-5,87.8,76.8,70.2,77.9,73.5,69.7,99,90,68,30.15,29.87,3,1,9,0.47
2012-8-6,80.1,72.4,60.4,70.9,64.3,59.0,99,78,55,29.97,29.89,3,1,7,0.01
2012-8-7,83.2,69.3,55.2,64.7,60.4,54.6,99,76,46,29.98,29.89,2,0,4,0.00
2012-8-8,65.1,65.1,65.1,62.7,62.7,62.7,92,92,92,29.94,29.93,0,0,0,0.00
2012-8-9,84.0,84.0,84.0,73.6,73.6,73.6,71,71,71,29.82,29.82,1,1,1,0.00
2012-8-10,80.2,72.6,69.5,74.0,70.7,65.8,100,94,78,29.82,29.70,3,0,8,0.63
2012-8-11,84.0,75.0,69.4,76.7,72.2,69.4,100,92,71,29.85,29.75,3,1,7,0.03
2012-8-12,85.3,75.7,67.0,72.3,68.1,62.9,98,79,52,29.87,29.82,3,0,6,0.00
2012-8-13,83.0,71.0,59.7,66.3,63.2,59.1,99,78,52,29.94,29.86,2,0,5,0.00
2012-8-14,76.5,71.8,63.0,68.5,66.1,62.9,100,83,72,29.94,29.92,1,0,2,0.00
2012-8-15,72.0,66.4,66.0,69.6,65.8,64.9,100,98,92,29.82,29.79,2,0,2,1.13
2012-8-16,81.5,70.4,64.0,67.6,64.2,60.3,100,83,51,29.85,29.78,8,0,8,0.00
2012-8-17,84.6,72.0,58.2,70.7,65.1,57.9,100,81,58,29.83,29.71,11,0,11,0.07
2012-8-18,76.1,67.5,56.0,64.4,57.8,52.7,99,73,50,29.89,29.79,7,1,8,0.31
2012-8-19,72.5,63.2,51.3,59.5,55.0,49.6,96,76,57,29.95,29.87,4,0,6,0.00
2012-8-20,74.3,67.7,63.3,63.7,62.5,61.3,97,84,65,29.88,29.81,0,0,5,0.04
2012-8-21,77.9,67.9,59.7,62.3,59.0,54.8,99,76,46,30.06,29.88,4,0,8,0.01
2012-8-22,82.3,67.4,53.7,64.1,59.1,53.4,100,78,45,30.12,30.04,4,0,6,0.00
2012-8-23,84.4,71.0,58.1,67.7,61.5,57.8,100,76,43,30.12,30.04,4,0,9,0.00
2012-8-24,85.2,72.1,58.3,67.9,62.4,58.0,100,75,45,30.15,30.09,3,0,5,0.00
2012-8-25,83.4,70.1,60.8,68.2,62.8,58.6,100,80,56,30.26,30.15,3,0,8,0.00
2012-8-26,81.8,69.1,57.8,63.0,59.2,54.8,99,74,40,30.30,30.17,4,0,8,0.00
2012-8-27,81.9,69.3,57.0,70.4,64.9,56.4,99,87,66,30.19,29.90,8,1,9,0.15
2012-8-28,81.7,73.1,66.1,71.4,66.7,59.4,100,82,54,29.89,29.72,8,1,13,0.39
2012-8-29,73.6,63.6,52.3,59.3,52.6,47.9,97,70,42,29.98,29.85,5,0,8,0.00
2012-8-30,77.4,63.0,46.5,58.3,53.0,46.0,99,73,42,30.06,29.98,6,1,8,0.00
2012-8-31,86.4,73.3,55.4,64.7,59.2,53.4,94,64,38,30.00,29.80,10,0,10,0.00
2012-9-1,85.7,74.3,63.8,70.2,63.5,54.9,92,72,36,30.03,29.83,8,0,8,0.00
2012-9-2,81.5,69.9,60.7,67.6,61.3,54.7,97,77,43,30.08,29.97,4,0,7,0.00
2012-9-3,76.8,65.8,54.4,61.7,58.5,54.1,99,79,51,30.17,30.08,5,1,8,0.00
2012-9-4,74.9,68.0,63.4,72.1,66.1,59.7,99,94,83,30.10,29.85,2,0,6,0.37
2012-9-5,79.2,72.5,64.0,73.5,69.4,63.1,100,91,66,29.79,29.70,5,1,10,1.18
2012-9-6,80.5,67.9,59.5,70.3,65.2,59.5,100,92,68,29.89,29.78,3,0,7,0.00
2012-9-7,85.7,73.9,64.5,71.9,68.7,64.5,100,86,60,29.89,29.79,3,0,7,0.00
2012-9-8,77.7,69.8,59.9,73.3,68.1,59.3,100,95,79,29.82,29.52,6,1,19,1.07
2012-9-9,73.5,63.4,55.1,60.0,57.4,54.8,100,83,55,29.84,29.70,4,0,8,0.06
2012-9-10,65.9,58.2,47.5,55.5,48.7,42.9,96,72,51,30.08,29.83,7,1,14,0.00
2012-9-11,70.5,56.2,43.2,50.8,46.0,41.1,96,72,38,30.25,30.08,3,0,7,0.00
2012-9-12,77.7,61.0,44.3,60.3,51.9,43.8,99,76,41,30.33,30.25,4,0,6,0.00
2012-9-13,79.1,63.7,48.5,62.5,56.4,48.2,100,80,50,30.34,30.22,6,0,8,0.00
2012-9-14,79.0,65.5,51.4,64.6,59.3,51.1,100,83,55,30.24,30.04,5,0,7,0.00
2012-9-15,66.9,60.0,50.5,60.6,52.8,47.8,99,79,54,30.07,30.01,14,1,18,0.04
2012-9-16,68.4,56.3,44.8,53.1,48.7,44.2,99,78,49,30.09,29.99,4,1,9,0.00
2012-9-17,75.2,58.5,42.9,59.0,52.1,42.6,99,82,53,30.09,29.99,3,0,6,0.00
2012-9-18,70.7,62.8,51.5,69.5,62.1,50.8,100,98,92,30.01,29.61,13,2,19,2.03
2012-9-19,65.9,58.0,45.2,65.9,51.1,43.7,100,80,53,30.17,29.67,4,1,12,0.00
2012-9-20,65.8,53.1,39.9,53.8,47.9,39.4,99,84,62,30.23,30.10,5,1,12,0.00
2012-9-21,70.0,57.6,47.4,55.7,51.6,47.1,99,83,57,30.12,30.00,4,0,8,0.00
2012-9-22,62.8,53.2,48.7,57.2,52.0,48.2,99,96,82,29.99,29.91,2,0,6,0.00
2012-9-25,63.7,57.9,55.3,55.2,52.8,48.2,90,83,57,30.11,30.09,0,0,3,0.00
2012-9-26,68.3,61.9,56.6,61.7,59.0,55.0,98,90,78,30.10,29.98,5,0,8,0.04
2012-9-27,68.7,61.1,52.2,60.8,54.9,48.7,99,82,57,30.17,29.99,4,0,8,0.00
2012-9-28,54.7,52.8,51.0,53.8,51.7,47.0,99,96,76,30.17,29.95,4,0,9,1.15
2012-9-29,59.1,54.7,51.8,55.4,53.3,51.5,99,95,87,29.95,29.84,1,0,4,0.02
2012-9-30,64.4,55.3,47.6,56.3,51.9,46.2,99,89,62,29.86,29.70,6,0,11,0.00
2012-10-1,64.7,54.6,46.4,53.9,49.8,45.6,98,85,66,29.94,29.72,9,1,13,0.00
2012-10-2,62.1,56.1,50.6,58.8,55.1,49.8,100,96,85,30.02,29.94,1,0,3,0.58
2012-10-3,71.1,62.8,57.9,68.5,62.4,57.9,100,99,90,30.09,29.99,1,0,4,0.03
2012-10-4,68.8,64.7,59.5,67.6,64.5,59.5,100,99,95,30.10,29.99,1,0,7,1.76
2012-10-5,74.8,62.2,52.5,64.4,57.3,52.5,100,86,53,30.02,29.88,4,0,5,0.02
2012-10-6,74.4,58.1,49.7,62.8,53.6,39.5,100,86,66,29.92,29.69,9,1,11,0.00
2012-10-7,52.9,46.8,37.3,45.9,41.5,36.0,97,82,66,30.07,29.92,2,0,6,0.14
2012-10-8,55.6,45.5,36.2,44.7,41.7,36.0,100,88,59,30.27,30.06,2,0,6,0.01
2012-10-9,54.7,49.2,43.0,50.0,46.9,42.5,98,92,81,30.25,30.09,6,0,11,0.00
2012-10-10,56.8,49.8,46.1,54.5,47.8,41.5,99,93,79,30.09,29.74,4,0,10,0.18
2012-10-11,55.6,45.9,38.4,41.2,37.5,33.6,97,75,44,30.13,29.86,8,1,10,0.00
2012-10-12,51.9,42.3,32.5,40.9,33.9,26.2,97,74,43,30.39,30.02,9,1,14,0.01
2012-10-13,50.3,39.1,25.2,37.2,27.4,23.5,95,66,37,30.49,30.28,4,0,8,0.00
2012-10-14,64.9,54.1,43.7,55.4,49.0,37.0,95,83,66,30.28,29.92,5,1,12,0.05
2012-10-15,69.0,60.7,55.9,62.3,58.6,54.8,100,93,77,29.92,29.58,7,1,13,0.26
2012-10-16,55.3,47.8,40.1,55.0,40.1,34.8,99,75,60,29.88,29.58,15,2,20,0.00
2012-10-17,61.6,45.8,31.2,43.2,37.5,30.7,99,76,38,29.99,29.88,4,0,5,0.00
2012-10-18,63.8,49.4,34.3,52.3,44.6,34.0,100,85,57,30.05,29.97,9,1,10,0.00
2012-10-19,64.9,60.3,53.9,64.7,60.0,52.7,100,99,95,30.00,29.66,13,1,18,1.97
2012-10-20,71.1,61.5,47.7,63.8,54.1,41.7,100,79,45,29.75,29.58,5,1,11,0.00
2012-10-21,61.9,52.0,42.1,44.3,41.3,39.7,91,68,46,29.93,29.75,7,1,12,0.00
2012-10-22,63.7,53.8,44.5,45.7,43.2,40.6,88,68,49,30.03,29.92,6,1,14,0.00
2012-10-23,62.9,52.2,46.4,51.1,46.5,40.8,99,82,51,30.10,30.02,4,0,5,0.20
2012-10-24,53.7,51.1,48.8,50.9,46.4,41.8,99,85,68,30.19,30.08,4,0,7,0.02
2012-10-25,60.7,54.0,49.4,50.4,47.1,44.3,90,78,60,30.27,30.18,3,0,5,0.00
2012-10-26,59.9,56.6,53.4,55.9,53.4,50.0,93,89,86,30.22,30.10,4,0,9,0.00
2012-10-27,61.3,57.4,55.3,55.2,54.1,53.1,96,89,79,30.10,29.93,5,0,7,0.00
2012-10-28,55.9,52.5,48.6,53.6,47.3,40.8,92,83,65,29.93,29.68,10,3,18,0.00
2012-10-29,61.8,54.2,48.6,61.0,52.7,46.4,99,95,87,29.68,28.87,20,6,30,1.97
2012-10-30,59.7,55.6,51.5,55.3,51.3,48.7,97,86,71,29.46,29.10,11,3,23,0.26
2012-10-31,51.3,46.4,42.7,50.1,42.2,38.6,97,86,73,29.53,29.42,4,1,8,0.05
2012-11-1,49.6,44.6,40.9,41.2,39.5,37.4,90,83,71,29.55,29.50,5,1,8,0.00
2012-11-2,48.8,43.5,39.2,40.8,37.6,33.2,94,80,63,29.66,29.54,7,2,12,0.00
2012-11-3,45.9,40.5,36.7,34.8,32.2,30.0,84,73,58,29.86,29.66,12,4,18,0.00
2012-11-4,46.0,39.0,35.3,33.2,30.9,28.8,81,73,60,29.95,29.85,8,2,14,0.00
2012-11-5,38.6,33.4,25.3,28.8,24.1,19.0,82,69,55,30.15,29.95,7,2,11,0.00
2012-11-6,41.7,29.0,18.6,23.2,19.6,16.9,95,70,41,30.24,30.13,4,0,6,0.00
2012-11-7,34.1,30.5,27.3,28.9,25.6,18.6,96,82,67,30.13,29.77,15,2,16,0.00
2012-11-8,37.9,34.5,28.8,31.0,29.0,26.3,96,80,72,29.85,29.71,15,2,16,0.31
2012-11-9,48.7,40.0,31.7,35.8,26.9,20.6,79,61,33,30.14,29.84,11,3,19,0.05
2012-11-10,54.5,46.3,41.0,40.3,38.1,35.5,83,74,54,30.41,30.13,7,1,9,0.00
2012-11-11,64.7,50.4,38.5,49.1,44.4,36.9,96,81,53,30.47,30.39,5,1,11,0.00
2012-11-12,62.5,53.1,38.8,58.2,50.7,38.0,100,92,80,30.44,30.17,8,1,15,0.00
2012-11-13,60.7,44.6,36.2,58.7,40.2,28.2,96,85,66,30.41,30.08,8,2,16,0.23
2012-11-14,46.3,35.1,27.2,30.1,26.2,23.0,89,71,46,30.53,30.41,5,1,8,0.00
2012-11-15,42.8,33.9,27.0,28.7,25.9,22.4,90,73,52,30.47,30.29,4,0,11,0.00
2012-11-16,45.5,34.6,27.0,29.9,26.8,24.7,94,75,47,30.43,30.28,3,0,8,0.00
2012-11-17,48.8,35.8,26.9,34.1,28.6,24.4,94,77,53,30.65,30.43,4,0,8,0.00
2012-11-18,45.7,33.4,24.0,33.9,27.9,22.5,96,82,56,30.70,30.60,3,0,8,0.00
2012-11-19,47.5,33.9,24.5,36.8,30.1,23.3,97,87,64,30.60,30.25,7,0,8,0.00
2012-11-20,49.2,34.4,23.9,34.1,27.5,23.2,98,79,42,30.25,30.12,3,0,7,0.01
2012-11-21,50.6,37.4,28.7,31.2,28.2,25.5,91,72,41,30.25,30.15,6,0,9,0.00
2012-11-22,56.7,37.9,26.7,41.5,32.2,25.7,98,82,41,30.27,30.12,2,0,5,0.00
2012-11-23,56.3,41.3,27.9,43.7,36.6,27.4,98,85,55,30.12,29.63,5,1,10,0.02
2012-11-24,44.6,37.2,30.5,43.9,26.2,19.4,98,65,45,29.73,29.59,13,4,21,0.00
2012-11-25,36.5,31.9,28.8,24.6,22.0,19.2,78,67,54,29.89,29.73,11,2,17,0.00
2012-11-26,42.7,34.0,25.7,26.9,24.4,22.4,88,69,52,30.23,29.88,7,1,14,0.00
2012-11-27,35.1,31.2,26.0,34.1,29.5,23.5,97,93,87,30.30,30.20,2,0,6,0.05
2012-11-28,36.2,31.1,24.7,31.1,26.8,21.9,97,85,64,30.20,30.13,5,1,11,0.05
2012-11-29,40.9,31.6,23.4,26.4,24.0,20.6,93,75,54,30.29,30.20,8,1,11,0.01
2012-11-30,37.8,31.3,27.1,30.2,23.8,14.4,86,74,54,30.49,30.25,5,1,8,0.01
2012-12-1,31.6,28.2,24.3,31.1,25.3,15.6,98,89,60,30.58,30.46,4,0,8,0.00
2012-12-2,48.0,39.8,31.7,46.2,38.8,31.2,99,96,86,30.45,30.07,4,0,12,0.08
2012-12-3,52.1,43.9,31.2,46.7,41.2,30.7,100,91,73,30.27,30.05,7,1,12,0.00
2012-12-4,53.2,42.9,30.1,53.2,42.6,29.6,100,99,98,30.28,29.95,4,0,7,0.01
2012-12-5,52.4,43.5,29.6,52.1,36.6,19.0,99,77,58,30.17,29.87,12,4,19,0.04
2012-12-6,38.8,28.1,20.9,20.9,18.6,16.3,91,68,47,30.33,30.17,8,2,15,0.00
2012-12-7,38.9,31.0,19.8,38.6,29.4,18.1,99,94,83,30.27,30.02,3,0,6,0.05
2012-12-8,46.5,41.6,38.5,46.2,41.4,38.2,100,99,98,30.02,29.83,2,0,5,0.22
2012-12-9,44.7,39.6,35.8,44.7,36.3,30.9,100,88,66,30.25,29.97,7,1,13,0.15
2012-12-10,54.6,45.1,36.8,54.4,44.6,36.3,100,98,90,30.06,29.51,9,1,16,0.23
2012-12-11,42.9,37.1,27.9,40.7,31.7,24.3,94,81,68,30.16,29.58,10,2,13,0.02
2012-12-12,37.7,29.5,25.4,27.0,24.5,22.2,94,82,60,30.43,30.16,3,0,5,0.00
2012-12-13,41.7,29.5,21.8,30.4,24.6,20.8,97,84,54,30.48,30.30,4,0,7,0.00
2012-12-14,46.3,31.2,21.0,29.1,24.7,20.0,97,79,40,30.30,30.11,4,0,8,0.00
2012-12-15,44.1,33.8,25.4,30.7,27.7,23.4,94,79,54,30.30,30.19,4,0,7,0.00
2012-12-16,32.5,31.3,30.0,31.9,28.7,26.5,98,90,81,30.25,29.99,5,1,12,0.00
2012-12-17,35.9,33.8,32.4,35.9,33.5,31.9,100,99,98,29.99,29.71,5,0,14,0.16
2012-12-18,44.1,40.3,36.0,44.1,40.0,36.0,100,99,90,29.70,29.43,10,1,15,0.87
2012-12-19,43.1,38.5,34.2,36.3,30.6,27.1,92,73,61,30.06,29.50,15,5,20,0.00
2012-12-20,40.1,34.5,28.4,33.5,28.8,24.8,96,80,66,30.20,29.92,6,1,9,0.06
2012-12-21,53.7,40.1,33.5,53.2,37.4,28.7,100,90,79,29.90,29.01,14,4,21,1.46
2012-12-22,34.4,31.5,28.9,31.2,25.2,20.7,92,78,63,29.71,29.22,15,4,26,0.00
2012-12-23,38.4,32.5,29.0,26.0,23.5,20.5,76,69,60,29.88,29.70,12,1,18,0.00
2012-12-24,36.5,29.0,22.3,26.3,21.7,18.7,92,75,57,30.07,29.89,5,0,8,0.00
2012-12-25,35.2,29.0,23.5,30.9,25.9,21.0,94,88,80,30.24,29.94,8,1,12,0.03
2012-12-26,31.4,25.7,17.9,30.9,21.1,16.2,98,84,64,30.29,29.68,10,2,22,0.00
2012-12-27,35.0,31.1,25.1,34.0,29.3,20.7,99,93,83,29.72,29.32,21,6,24,0.19
2012-12-28,31.8,26.9,23.8,24.8,21.9,18.7,90,81,73,30.04,29.71,15,4,17,0.00
2012-12-29,29.0,25.6,21.4,27.1,23.8,19.7,97,93,84,30.02,29.47,4,0,9,0.00
2012-12-30,29.0,24.5,21.0,25.8,16.8,10.8,93,73,50,30.05,29.51,15,4,30,0.00
2012-12-31,33.7,27.6,20.4,23.4,19.3,10.9,81,71,62,30.10,29.80,7,2,12,0.00
2013-1-1,34.4,28.6,16.5,27.0,19.8,7.3,79,69,58,29.95,29.78,10,3,14,0.00